Dades meteomassalio
Diari Summary for Marc 19, 2017 Units:  Metric    English   Both
« Previous Day
Next Day »
Diari Semanal Mensual Anual Personalitzat
  Maxima: Minima: Mijana:
Temperatura: -17.8 °C -15.2 °C -10.4 °C
Rosada: -17.8 °C -16.6 °C -15.1 °C
Humitat: Humidity % 35 % 61 %
Velocitat del vent: 0 km/h 0 km/h 7.7 km/h
Racha vent: 0 km/h - -
Vent:- - West
Pressio: 0 hPa 34337.4 hPa -
Pluja: 0 mm    
Historical Graphs
 
 
Tabular Data for Marc 19, 2017
Time Temperature Dew Point Pressure Wind Wind Speed Wind Gust Humidity Rainfall Rate (Hourly) solar Conditions
-17.8 °C -17.8 °C 0 hPa Calm     Humidity % 0 mm SolarRadiationWatts/m^2 W/m2 Conditions
00:03 -12.6 °C -14.8 °C 34577.8 hPa Calm     76 % 0 mm 0.0 W/m2 CLR
00:08 -12.7 °C -14.9 °C 34577.8 hPa Calm     76 % 0 mm 0.0 W/m2 CLR
00:13 -12.8 °C -14.9 °C 34577.8 hPa Calm     77 % 0 mm 0.0 W/m2 CLR
00:18 -12.9 °C -14.9 °C 34577.8 hPa Calm     78 % 0 mm 0.0 W/m2 CLR
00:23 -13.1 °C -15.1 °C 34577.8 hPa Calm     78 % 0 mm 0.0 W/m2 CLR
00:28 -13.2 °C -15.1 °C 34577.8 hPa Calm     79 % 0 mm 0.0 W/m2 CLR
00:33 -13.2 °C -15.1 °C 34577.8 hPa Calm     79 % 0 mm 0.0 W/m2 CLR
00:38 -13.3 °C -15.2 °C 34577.8 hPa Calm     79 % 0 mm 0.0 W/m2 CLR
00:43 -13.3 °C -15.2 °C 34577.8 hPa Calm     79 % 0 mm 0.0 W/m2 CLR
00:48 -13.4 °C -15.2 °C 34577.8 hPa Calm     80 % 0 mm 0.0 W/m2 CLR
00:54 -13.4 °C -15.3 °C 34577.8 hPa Calm     79 % 0 mm 0.0 W/m2 CLR
00:59 -13.5 °C -15.4 °C 34577.8 hPa Calm     79 % 0 mm 0.0 W/m2 CLR
01:04 -13.6 °C -15.4 °C 34577.8 hPa Calm     80 % 0 mm 0.0 W/m2 CLR
01:09 -13.7 °C -15.4 °C 34577.8 hPa Calm     80 % 0 mm 0.0 W/m2 CLR
01:13 -13.7 °C -15.4 °C 34577.8 hPa Calm     81 % 0 mm 0.0 W/m2 CLR
01:19 -13.7 °C -15.4 °C 34577.8 hPa Calm     81 % 0 mm 0.0 W/m2 CLR
01:24 -13.8 °C -15.5 °C 34577.8 hPa Calm     81 % 0 mm 0.0 W/m2 CLR
01:29 -13.8 °C -15.6 °C 34577.8 hPa Calm     81 % 0 mm 0.0 W/m2 CLR
01:34 -13.9 °C -15.6 °C 34577.8 hPa Calm     81 % 0 mm 0.0 W/m2 CLR
01:39 -13.9 °C -15.7 °C 34577.8 hPa Calm     81 % 0 mm 0.0 W/m2 CLR
01:44 -14 °C -15.6 °C 34577.8 hPa Calm     82 % 0 mm 0.0 W/m2 CLR
01:49 -13.9 °C -15.7 °C 34577.8 hPa Calm     81 % 0 mm 0.0 W/m2 CLR
01:54 -14 °C -15.7 °C 34567.7 hPa Calm     81 % 0 mm 0.0 W/m2 CLR
01:59 -14.1 °C -15.7 °C 34567.7 hPa Calm     81 % 0 mm 0.0 W/m2 CLR
02:04 -14.1 °C -15.8 °C 34567.7 hPa Calm     81 % 0 mm 0.0 W/m2 CLR
02:09 -14.2 °C -15.8 °C 34567.7 hPa Calm     81 % 0 mm 0.0 W/m2 CLR
02:14 -14.2 °C -15.8 °C 34567.7 hPa Calm     82 % 0 mm 0.0 W/m2 CLR
02:19 -14.2 °C -15.8 °C 34567.7 hPa Calm     82 % 0 mm 0.0 W/m2 CLR
02:24 -14.2 °C -15.8 °C 34567.7 hPa Calm     82 % 0 mm 0.0 W/m2 CLR
02:29 -14.3 °C -15.8 °C 34554.1 hPa Calm     82 % 0 mm 0.0 W/m2 CLR
02:34 -14.3 °C -15.9 °C 34554.1 hPa Calm     82 % 0 mm 0.0 W/m2 CLR
02:39 -14.3 °C -15.9 °C 34554.1 hPa Calm     82 % 0 mm 0.0 W/m2 CLR
02:44 -14.3 °C -15.9 °C 34554.1 hPa Calm     82 % 0 mm 0.0 W/m2 CLR
02:49 -14.3 °C -15.9 °C 34554.1 hPa Calm     82 % 0 mm 0.0 W/m2 CLR
02:54 -14.3 °C -15.9 °C 34554.1 hPa Calm     82 % 0 mm 0.0 W/m2 CLR
02:59 -14.3 °C -15.9 °C 34554.1 hPa Calm     82 % 0 mm 0.0 W/m2 CLR
03:04 -14.3 °C -15.9 °C 34554.1 hPa Calm     82 % 0 mm 0.0 W/m2 CLR
03:09 -14.3 °C -15.9 °C 34544 hPa Calm     82 % 0 mm 0.0 W/m2 CLR
03:14 -14.3 °C -15.9 °C 34544 hPa Calm     82 % 0 mm 0.0 W/m2 CLR
03:19 -14.2 °C -15.9 °C 34544 hPa Calm     81 % 0 mm 0.0 W/m2 CLR
03:24 -14.2 °C -16 °C 34554.1 hPa Calm     80 % 0 mm 0.0 W/m2 CLR
03:29 -14.3 °C -15.9 °C 34554.1 hPa Calm     81 % 0 mm 0.0 W/m2 CLR
03:34 -14.3 °C -16 °C 34544 hPa Calm     81 % 0 mm 0.0 W/m2 CLR
03:39 -14.3 °C -16 °C 34544 hPa Calm     81 % 0 mm 0.0 W/m2 CLR
03:44 -14.3 °C -16 °C 34544 hPa Calm     81 % 0 mm 0.0 W/m2 CLR
03:49 -14.3 °C -16 °C 34544 hPa Calm     81 % 0 mm 0.0 W/m2 CLR
03:54 -14.3 °C -15.9 °C 34544 hPa Calm     81 % 0 mm 0.0 W/m2 CLR
03:59 -14.3 °C -16.1 °C 34544 hPa Calm     80 % 0 mm 0.0 W/m2 CLR
04:04 -14.3 °C -16 °C 34544 hPa Calm     81 % 0 mm 0.0 W/m2 CLR
04:09 -14.3 °C -16.1 °C 34533.8 hPa Calm     80 % 0 mm 0.0 W/m2 CLR
04:14 -14.3 °C -16.1 °C 34533.8 hPa Calm     80 % 0 mm 0.0 W/m2 CLR
04:19 -14.3 °C -16.1 °C 34533.8 hPa Calm     80 % 0 mm 0.0 W/m2 CLR
04:24 -14.3 °C -16.1 °C 34533.8 hPa WSW 11.9 km/h 11.9 km/h 80 % 0 mm 0.0 W/m2 CLR
04:29 -14.1 °C -15.8 °C 34533.8 hPa SW 17.9 km/h 17.9 km/h 80 % 0 mm 0.0 W/m2 CLR
04:34 -13.5 °C -15.8 °C 34533.8 hPa WSW 20.9 km/h 20.9 km/h 75 % 0 mm 0.0 W/m2 CLR
04:39 -13.2 °C -15.8 °C 34533.8 hPa WSW 15 km/h 15 km/h 72 % 0 mm 0.0 W/m2 CLR
04:44 -13 °C -16 °C 34533.8 hPa WSW 11.9 km/h 11.9 km/h 69 % 0 mm 0.0 W/m2 CLR
04:49 -12.9 °C -16 °C 34533.8 hPa SW 11.9 km/h 11.9 km/h 68 % 0 mm 0.0 W/m2 CLR
04:54 -12.8 °C -16 °C 34533.8 hPa WSW 11.9 km/h 11.9 km/h 67 % 0 mm 0.0 W/m2 CLR
04:59 -12.6 °C -16.1 °C 34533.8 hPa WSW 15.6 km/h 15.6 km/h 65 % 0 mm 0.0 W/m2 CLR
05:04 -12.3 °C -16.1 °C 34533.8 hPa SW 10.3 km/h 10.3 km/h 63 % 0 mm 0.0 W/m2 CLR
05:14 -12.5 °C -16.1 °C 34544 hPa WSW 9 km/h 9 km/h 64 % 0 mm 0.0 W/m2 CLR
05:19 -12.7 °C -16.2 °C 34533.8 hPa Calm     65 % 0 mm 0.0 W/m2 CLR
05:24 -13.1 °C -16.3 °C 34533.8 hPa Calm     67 % 0 mm 0.0 W/m2 CLR
05:29 -13.4 °C -16.2 °C 34533.8 hPa Calm     70 % 0 mm 0.0 W/m2 CLR
05:34 -13.7 °C -16.3 °C 34533.8 hPa Calm     72 % 0 mm 0.0 W/m2 CLR
05:39 -13.8 °C -16.3 °C 34533.8 hPa Calm     73 % 0 mm 0.0 W/m2 CLR
05:44 -13.9 °C -16.3 °C 34533.8 hPa Calm     74 % 0 mm 0.0 W/m2 CLR
05:49 -14.1 °C -16.4 °C 34533.8 hPa Calm     75 % 0 mm 0.0 W/m2 CLR
05:54 -14.1 °C -16.3 °C 34533.8 hPa SW 3.1 km/h   76 % 0 mm 0.0 W/m2 CLR
05:59 -14.1 °C -16.3 °C 34533.8 hPa SW 9 km/h 9 km/h 76 % 0 mm 0.0 W/m2 CLR
06:04 -14.1 °C -16.3 °C 34533.8 hPa Calm     76 % 0 mm 0.0 W/m2 CLR
06:09 -14.1 °C -16.3 °C 34533.8 hPa Calm     76 % 0 mm 0.0 W/m2 CLR
06:14 -14.3 °C -16.3 °C 34533.8 hPa Calm     77 % 0 mm 0.0 W/m2 CLR
06:19 -14.4 °C -16.4 °C 34544 hPa Calm     78 % 0 mm 0.0 W/m2 CLR
06:24 -14.6 °C -16.4 °C 34544 hPa Calm     79 % 0 mm 0.0 W/m2 CLR
06:29 -14.6 °C -16.5 °C 34544 hPa Calm   2.3 km/h 79 % 0 mm 0.0 W/m2 CLR
06:34 -14.7 °C -16.4 °C 34544 hPa Calm     80 % 0 mm 0.0 W/m2 CLR
06:39 -14.7 °C -16.5 °C 34544 hPa Calm     80 % 0 mm 0.0 W/m2 CLR
06:44 -14.8 °C -16.5 °C 34544 hPa Calm     81 % 0 mm 0.0 W/m2 CLR
06:49 -14.9 °C -16.6 °C 34544 hPa Calm     81 % 0 mm 0.0 W/m2 CLR
06:54 -15 °C -16.6 °C 34554.1 hPa Calm   0.3 km/h 82 % 0 mm 0.0 W/m2 CLR
06:59 -15 °C -16.6 °C 34554.1 hPa Calm     82 % 0 mm 0.0 W/m2 CLR
07:04 -15 °C -16.6 °C 34554.1 hPa Calm     82 % 0 mm 0.0 W/m2 OVC
07:09 -15.1 °C -16.6 °C 34554.1 hPa Calm     82 % 0 mm 7.0 W/m2 BKN
07:14 -15.1 °C -16.6 °C 34554.1 hPa Calm     83 % 0 mm 9.0 W/m2 BKN
07:19 -15.2 °C -16.6 °C 34554.1 hPa WSW 7.7 km/h 7.7 km/h 83 % 0 mm 11.0 W/m2 BKN
07:25 -15.1 °C -16.6 °C 34554.1 hPa SW 9 km/h 9 km/h 83 % 0 mm 14.0 W/m2 BKN
07:30 -15.1 °C -16.6 °C 34554.1 hPa Calm     83 % 0 mm 16.0 W/m2 BKN
07:35 -15.1 °C -16.6 °C 34554.1 hPa Calm     83 % 0 mm 18.0 W/m2 BKN
07:40 -15 °C -16.5 °C 34554.1 hPa Calm     83 % 0 mm 32.0 W/m2 BKN
07:45 -14.9 °C -16.3 °C 34554.1 hPa Calm     84 % 0 mm 39.0 W/m2 BKN
07:50 -14.8 °C -16.3 °C 34554.1 hPa Calm     83 % 0 mm 49.0 W/m2 SCT
07:55 -14.8 °C -16.3 °C 34554.1 hPa Calm     83 % 0 mm 51.0 W/m2 SCT
08:00 -14.6 °C -16.1 °C 34554.1 hPa Calm     83 % 0 mm 83.0 W/m2 FEW
08:05 -14.4 °C -16 °C 34554.1 hPa Calm     82 % 0 mm 84.0 W/m2 FEW
08:10 -14.2 °C -15.9 °C 34554.1 hPa Calm     81 % 0 mm 121.0 W/m2 CLR
08:12 -14.1 °C -15.8 °C 34554.1 hPa Calm     81 % 0 mm 90.0 W/m2 CLR
08:17 -13.9 °C -15.8 °C 34554.1 hPa Calm     79 % 0 mm 118.0 W/m2 CLR
08:22 -13.8 °C -15.9 °C 34554.1 hPa Calm     77 % 0 mm 163.0 W/m2 CLR
08:27 -13.6 °C -15.7 °C 34554.1 hPa Calm     77 % 0 mm 183.0 W/m2 CLR
08:32 -13.4 °C -15.5 °C 34554.1 hPa Calm     77 % 0 mm 204.0 W/m2 CLR
08:37 -13.1 °C -15.4 °C 34554.1 hPa Calm     75 % 0 mm 227.0 W/m2 CLR
08:42 -12.9 °C -15.3 °C 34554.1 hPa Calm     74 % 0 mm 243.0 W/m2 CLR
08:47 -12.6 °C -15.2 °C 34544 hPa Calm     73 % 0 mm 258.0 W/m2 CLR
08:52 -12.4 °C -15.2 °C 34544 hPa Calm     71 % 0 mm 255.0 W/m2 CLR
08:57 -12.2 °C -15.2 °C 34544 hPa Calm     69 % 0 mm 290.0 W/m2 CLR
09:02 -12.1 °C -15.1 °C 34544 hPa Calm     69 % 0 mm 304.0 W/m2 CLR
09:07 -11.8 °C -14.8 °C 34554.1 hPa Calm     69 % 0 mm 322.0 W/m2 CLR
09:12 -11.5 °C -14.9 °C 34544 hPa Calm     66 % 0 mm 329.0 W/m2 CLR
09:17 -11.3 °C -14.9 °C 34544 hPa Calm     64 % 0 mm 355.0 W/m2 CLR
09:22 -11.1 °C -14.9 °C 34544 hPa Calm     63 % 0 mm 369.0 W/m2 CLR
09:27 -10.9 °C -14.8 °C 34544 hPa Calm     62 % 0 mm 383.0 W/m2 CLR
09:32 -10.7 °C -14.7 °C 34544 hPa Calm     62 % 0 mm 399.0 W/m2 CLR
09:37 -10.7 °C -14.6 °C 34533.8 hPa Calm     62 % 0 mm 417.0 W/m2 CLR
09:42 -10.4 °C -14.3 °C 34533.8 hPa Calm     62 % 0 mm 431.0 W/m2 CLR
09:47 -10 °C -15.1 °C 34533.8 hPa NNW 29.8 km/h 29.8 km/h 54 % 0 mm 445.0 W/m2 CLR
09:52 -9.6 °C -15.8 °C 34533.8 hPa NW 29.8 km/h 29.8 km/h 47 % 0 mm 457.0 W/m2 CLR
09:57 -9.3 °C -15.9 °C 34533.8 hPa WNW 23.3 km/h 23.3 km/h 45 % 0 mm 473.0 W/m2 CLR
10:02 -9.1 °C -15.6 °C 34533.8 hPa NW 20.9 km/h 20.9 km/h 46 % 0 mm 485.0 W/m2 CLR
10:07 -9 °C -15.6 °C 34520.3 hPa NW 15.6 km/h 15.6 km/h 45 % 0 mm 499.0 W/m2 CLR
10:12 -8.9 °C -15.9 °C 34520.3 hPa NNW 20.9 km/h 20.9 km/h 43 % 0 mm 512.0 W/m2 CLR
10:17 -8.8 °C -16.2 °C 34520.3 hPa WSW 29.8 km/h 29.8 km/h 41 % 0 mm 524.0 W/m2 CLR
10:22 -8.7 °C -15.8 °C 34520.3 hPa WSW 20.9 km/h 20.9 km/h 42 % 0 mm 540.0 W/m2 CLR
10:27 -8.6 °C -15.8 °C 34520.3 hPa NNW 33.6 km/h 33.6 km/h 42 % 0 mm 550.0 W/m2 CLR
10:32 -8.6 °C -15.9 °C 34520.3 hPa NW 11.9 km/h 11.9 km/h 41 % 0 mm 563.0 W/m2 CLR
10:37 -8.5 °C -15.9 °C 34520.3 hPa NW 44.7 km/h 44.7 km/h 41 % 0 mm 573.0 W/m2 CLR
10:42 -8.6 °C -16.2 °C 34510.1 hPa WNW 29.8 km/h 29.8 km/h 40 % 0 mm 587.0 W/m2 CLR
10:47 -8.4 °C -15.9 °C 34510.1 hPa NW 31.1 km/h 31.1 km/h 41 % 0 mm 596.0 W/m2 CLR
10:52 -8.4 °C -15.8 °C 34510.1 hPa WNW 25.9 km/h 25.9 km/h 41 % 0 mm 606.0 W/m2 CLR
10:57 -8.4 °C -16.2 °C 34510.1 hPa WNW 29.8 km/h 29.8 km/h 39 % 0 mm 617.0 W/m2 CLR
11:02 -8.3 °C -15.7 °C 34510.1 hPa West 28.5 km/h 28.5 km/h 41 % 0 mm 626.0 W/m2 CLR
11:07 -8.3 °C -15.9 °C 34510.1 hPa WNW 38.8 km/h 38.8 km/h 40 % 0 mm 638.0 W/m2 CLR
11:12 -8.3 °C -15.3 °C 34510.1 hPa WNW 20.9 km/h 20.9 km/h 43 % 0 mm 649.0 W/m2 CLR
11:17 -8.2 °C -15.3 °C 34510.1 hPa WNW 11.9 km/h 11.9 km/h 43 % 0 mm 654.0 W/m2 CLR
11:22 -8.1 °C -15.6 °C 34510.1 hPa NNW 29.8 km/h 29.8 km/h 41 % 0 mm 663.0 W/m2 CLR
11:27 -8.1 °C -15.5 °C 34496.6 hPa WNW 28.5 km/h 28.5 km/h 41 % 0 mm 675.0 W/m2 CLR
11:28 -8 °C -15.7 °C 34496.6 hPa West 26.9 km/h 26.9 km/h 40 % 0 mm 675.0 W/m2 CLR
11:33 -8 °C -15.7 °C 34496.6 hPa WNW 29.8 km/h 29.8 km/h 40 % 0 mm 684.0 W/m2 CLR
11:38 -7.9 °C -15.4 °C 34496.6 hPa WNW 26.9 km/h 26.9 km/h 41 % 0 mm 689.0 W/m2 CLR
11:43 -7.8 °C -15.1 °C 34496.6 hPa NNW 31.1 km/h 31.1 km/h 42 % 0 mm 694.0 W/m2 CLR
11:48 -7.7 °C -15.4 °C 34496.6 hPa NNW 36.2 km/h 36.2 km/h 40 % 0 mm 703.0 W/m2 CLR
11:53 -7.8 °C -15.2 °C 34496.6 hPa NW 23.3 km/h 23.3 km/h 41 % 0 mm 710.0 W/m2 CLR
11:58 -7.8 °C -14.9 °C 34486.4 hPa NW 23.3 km/h 23.3 km/h 43 % 0 mm 717.0 W/m2 CLR
12:03 -7.7 °C -15.4 °C 34486.4 hPa West 20.9 km/h 20.9 km/h 40 % 0 mm 722.0 W/m2 CLR
12:08 -7.7 °C -15 °C 34486.4 hPa NNW 20.9 km/h 20.9 km/h 42 % 0 mm 728.0 W/m2 CLR
12:13 -7.6 °C -15.3 °C 34476.3 hPa West 23.8 km/h 23.8 km/h 40 % 0 mm 731.0 W/m2 CLR
12:18 -7.4 °C -14.8 °C 34476.3 hPa North 17.9 km/h 17.9 km/h 42 % 0 mm 738.0 W/m2 CLR
12:23 -7.3 °C -15.1 °C 34476.3 hPa WNW 11.9 km/h 11.9 km/h 40 % 0 mm 742.0 W/m2 CLR
12:28 -7.3 °C -14.9 °C 34476.3 hPa NNW 23.8 km/h 23.8 km/h 40 % 0 mm 744.0 W/m2 CLR
12:33 -7.3 °C -15 °C 34476.3 hPa NW 15.6 km/h 15.6 km/h 40 % 0 mm 747.0 W/m2 CLR
12:38 -7.2 °C -15.1 °C 34462.7 hPa Calm     39 % 0 mm 751.0 W/m2 CLR
12:43 -7.1 °C -15.1 °C 34462.7 hPa NNW 23.8 km/h 23.8 km/h 39 % 0 mm 754.0 W/m2 CLR
12:48 -7.1 °C -14.8 °C 34462.7 hPa WNW 20.9 km/h 20.9 km/h 40 % 0 mm 756.0 W/m2 CLR
12:53 -7.1 °C -14.8 °C 34462.7 hPa WNW 23.8 km/h 23.8 km/h 40 % 0 mm 758.0 W/m2 CLR
12:58 -6.9 °C -14.5 °C 34462.7 hPa NNW 20.9 km/h 20.9 km/h 41 % 0 mm 758.0 W/m2 CLR
13:03 -6.8 °C -14.6 °C 34462.7 hPa NNW 23.8 km/h 23.8 km/h 40 % 0 mm 758.0 W/m2 CLR
13:08 -6.8 °C -14.6 °C 34452.6 hPa WNW 20.9 km/h 20.9 km/h 40 % 0 mm 758.0 W/m2 CLR
13:13 -6.8 °C -14.2 °C 34452.6 hPa NNW 23.8 km/h 23.8 km/h 42 % 0 mm 761.0 W/m2 CLR
13:18 -6.8 °C -14.8 °C 34452.6 hPa NW 29.8 km/h 29.8 km/h 39 % 0 mm 765.0 W/m2 CLR
13:23 -6.8 °C -14.6 °C 34442.4 hPa NNE 26.9 km/h 26.9 km/h 40 % 0 mm 770.0 W/m2 CLR
13:28 -6.8 °C -14.8 °C 34442.4 hPa WNW 29.8 km/h 29.8 km/h 39 % 0 mm 772.0 W/m2 CLR
13:33 -6.8 °C -14.8 °C 34442.4 hPa WNW 15 km/h 15 km/h 39 % 0 mm 752.0 W/m2 CLR
13:38 -6.7 °C -14.7 °C 34442.4 hPa NW 26.9 km/h 26.9 km/h 39 % 0 mm 752.0 W/m2 CLR
13:43 -6.6 °C -14.4 °C 34442.4 hPa NW 23.8 km/h 23.8 km/h 40 % 0 mm 763.0 W/m2 CLR
13:48 -6.5 °C -14.1 °C 34428.8 hPa Calm     41 % 0 mm 749.0 W/m2 CLR
13:53 -6.4 °C -14.5 °C 34428.8 hPa NNW 31.1 km/h 31.1 km/h 39 % 0 mm 707.0 W/m2 CLR
13:58 -6.6 °C -14.6 °C 34428.8 hPa North 23.3 km/h 23.3 km/h 39 % 0 mm 735.0 W/m2 CLR
14:03 -6.5 °C -14.5 °C 34428.8 hPa NNW 23.8 km/h 23.8 km/h 39 % 0 mm 712.0 W/m2 CLR
14:08 -6.4 °C -14.4 °C 34428.8 hPa NE 20.9 km/h 20.9 km/h 39 % 0 mm 686.0 W/m2 CLR
14:13 -6.4 °C -14.4 °C 34428.8 hPa North 26.9 km/h 26.9 km/h 39 % 0 mm 694.0 W/m2 CLR
14:18 -6.5 °C -14.5 °C 34428.8 hPa NNE 17.9 km/h 17.9 km/h 39 % 0 mm 742.0 W/m2 CLR
14:23 -6.4 °C -14.4 °C 34418.7 hPa NNW 17.9 km/h 17.9 km/h 39 % 0 mm 731.0 W/m2 CLR
14:28 -6.4 °C -14.2 °C 34418.7 hPa WNW 9 km/h 9 km/h 40 % 0 mm 721.0 W/m2 CLR
14:33 -6.4 °C -14.6 °C 34418.7 hPa NNW 17.9 km/h 17.9 km/h 38 % 0 mm 705.0 W/m2 CLR
14:38 -6.4 °C -14.2 °C 34405.1 hPa North 20.9 km/h 20.9 km/h 40 % 0 mm 710.0 W/m2 CLR
14:43 -6.3 °C -13.9 °C 34405.1 hPa NW 11.9 km/h 11.9 km/h 41 % 0 mm 703.0 W/m2 CLR
14:48 -6.1 °C -13.9 °C 34405.1 hPa NW 23.8 km/h 23.8 km/h 40 % 0 mm 703.0 W/m2 CLR
14:53 -6 °C -14.3 °C 34405.1 hPa WNW 9 km/h 9 km/h 38 % 0 mm 700.0 W/m2 CLR
14:58 -5.9 °C -14.4 °C 34405.1 hPa NNW 15 km/h 15 km/h 37 % 0 mm 735.0 W/m2 CLR
15:03 -5.9 °C -14.4 °C 34395 hPa NNW 12.9 km/h 12.9 km/h 37 % 0 mm 594.0 W/m2 CLR
15:08 -5.9 °C -14.4 °C 34395 hPa WNW 23.8 km/h 23.8 km/h 37 % 0 mm 612.0 W/m2 CLR
15:13 -5.9 °C -14.8 °C 34395 hPa WNW 15 km/h 15 km/h 35 % 0 mm 536.0 W/m2 CLR
15:18 -5.8 °C -14.6 °C 34395 hPa Calm     36 % 0 mm 559.0 W/m2 CLR
15:23 -5.7 °C -14.2 °C 34395 hPa WNW 23.8 km/h 23.8 km/h 37 % 0 mm 543.0 W/m2 CLR
15:28 -5.7 °C -14.2 °C 34384.8 hPa NW 15 km/h 15 km/h 37 % 0 mm 575.0 W/m2 CLR
15:33 -5.8 °C -14.1 °C 34384.8 hPa NNW 23.8 km/h 23.8 km/h 38 % 0 mm 564.0 W/m2 CLR
15:38 -5.9 °C -14.6 °C 34384.8 hPa Calm     36 % 0 mm 561.0 W/m2 CLR
15:43 -5.8 °C -14.3 °C 34384.8 hPa NNW 9 km/h   37 % 0 mm 512.0 W/m2 CLR
15:48 -5.7 °C -14.4 °C 34384.8 hPa WNW 15 km/h 15 km/h 36 % 0 mm 563.0 W/m2 CLR
15:53 -5.5 °C -14.3 °C 34384.8 hPa WNW 17.9 km/h 17.9 km/h 36 % 0 mm 587.0 W/m2 CLR
15:58 -5.6 °C -14.1 °C 34371.3 hPa WNW 15 km/h   37 % 0 mm 439.0 W/m2 CLR
16:03 -5.6 °C -14.1 °C 34371.3 hPa WNW 18.2 km/h 18.2 km/h 37 % 0 mm 570.0 W/m2 CLR
16:08 -5.7 °C -14.2 °C 34371.3 hPa NNW 23.8 km/h 23.8 km/h 37 % 0 mm 519.0 W/m2 CLR
16:13 -5.7 °C -14.4 °C 34371.3 hPa NE 17.9 km/h 17.9 km/h 36 % 0 mm 392.0 W/m2 CLR
16:18 -5.6 °C -13.9 °C 34371.3 hPa NW 15 km/h 15 km/h 38 % 0 mm 350.0 W/m2 CLR
16:23 -5.6 °C -14.1 °C 34371.3 hPa NNW 29.8 km/h 29.8 km/h 37 % 0 mm 396.0 W/m2 CLR
16:28 -5.7 °C -14.2 °C 34361.1 hPa NNW 26.9 km/h 26.9 km/h 37 % 0 mm 399.0 W/m2 CLR
16:33 -5.7 °C -14.1 °C 34361.1 hPa North 20.9 km/h 20.9 km/h 38 % 0 mm 468.0 W/m2 CLR
16:38 -5.6 °C -14.4 °C 34361.1 hPa WNW 26.9 km/h 26.9 km/h 36 % 0 mm 475.0 W/m2 CLR
16:43 -5.6 °C -14.6 °C 34361.1 hPa WNW 11.9 km/h 11.9 km/h 35 % 0 mm 441.0 W/m2 CLR
16:48 -5.6 °C -13.9 °C 34361.1 hPa WNW 17.9 km/h 17.9 km/h 38 % 0 mm 410.0 W/m2 CLR
16:53 -5.5 °C -14.3 °C 34361.1 hPa NW 15 km/h 15 km/h 36 % 0 mm 387.0 W/m2 CLR
16:58 -5.6 °C -14.6 °C 34361.1 hPa Calm     35 % 0 mm 369.0 W/m2 CLR
17:03 -5.6 °C -14.6 °C 34347.6 hPa NNW 20.8 km/h 20.8 km/h 35 % 0 mm 355.0 W/m2 CLR
17:08 -5.7 °C -14.2 °C 34347.6 hPa NW 3.1 km/h   37 % 0 mm 338.0 W/m2 CLR
17:13 -5.5 °C -14.1 °C 34347.6 hPa NNW 18.2 km/h 18.2 km/h 37 % 0 mm 322.0 W/m2 CLR
17:18 -5.6 °C -14.1 °C 34347.6 hPa NW 23.3 km/h 23.3 km/h 37 % 0 mm 308.0 W/m2 CLR
17:23 -5.7 °C -13.8 °C 34347.6 hPa North 9 km/h 9 km/h 39 % 0 mm 292.0 W/m2 CLR
17:28 -5.7 °C -14.1 °C 34347.6 hPa North 15 km/h 15 km/h 38 % 0 mm 274.0 W/m2 CLR
17:33 -5.8 °C -14.1 °C 34347.6 hPa NNW 9 km/h 9 km/h 38 % 0 mm 255.0 W/m2 CLR
17:38 -5.7 °C -14.4 °C 34347.6 hPa North 10.3 km/h 10.3 km/h 36 % 0 mm 237.0 W/m2 CLR
17:43 -5.7 °C -14 °C 34347.6 hPa NNW 15 km/h 15 km/h 38 % 0 mm 220.0 W/m2 CLR
17:48 -5.7 °C -14.2 °C 34347.6 hPa North 10.3 km/h 10.3 km/h 37 % 0 mm 202.0 W/m2 CLR
17:53 -5.8 °C -14.6 °C 34347.6 hPa NNW 17.9 km/h 17.9 km/h 36 % 0 mm 179.0 W/m2 CLR
17:58 -5.9 °C -14.4 °C 34347.6 hPa NNW 9 km/h 9 km/h 37 % 0 mm 162.0 W/m2 CLR
18:03 -5.9 °C -14.2 °C 34347.6 hPa NNW 11.9 km/h 11.9 km/h 38 % 0 mm 142.0 W/m2 CLR
18:08 -5.9 °C -14.2 °C 34347.6 hPa NNW 12.9 km/h 12.9 km/h 38 % 0 mm 127.0 W/m2 CLR
18:13 -6.1 °C -14.6 °C 34347.6 hPa NNW 9 km/h   37 % 0 mm 105.0 W/m2 CLR
18:18 -6.1 °C -14.3 °C 34347.6 hPa Calm     38 % 0 mm 90.0 W/m2 CLR
18:23 -6.1 °C -13.9 °C 34337.4 hPa Calm     40 % 0 mm 72.0 W/m2 FEW
18:28 -6.1 °C -14.4 °C 34337.4 hPa Calm     38 % 0 mm 49.0 W/m2 SCT
18:33 -6.2 °C -14.2 °C 34337.4 hPa Calm     39 % 0 mm 44.0 W/m2 BKN
18:38 -6.2 °C -14.3 °C 34337.4 hPa Calm     39 % 0 mm 32.0 W/m2 BKN
18:43 -6.3 °C -13.9 °C 34347.6 hPa Calm     41 % 0 mm 23.0 W/m2 BKN
18:48 -6.4 °C -14.3 °C 34347.6 hPa Calm     40 % 0 mm 14.0 W/m2 BKN
18:53 -6.6 °C -14.4 °C 34347.6 hPa Calm     40 % 0 mm 12.0 W/m2 BKN
18:58 -6.8 °C -14.4 °C 34347.6 hPa Calm     41 % 0 mm 11.0 W/m2 BKN
19:03 -7.1 °C -14.4 °C 34347.6 hPa Calm     42 % 0 mm 7.0 W/m2 BKN
19:08 -7.2 °C -14.3 °C 34347.6 hPa Calm     43 % 0 mm 5.0 W/m2 OVC
19:13 -7.3 °C -14.3 °C 34347.6 hPa Calm     44 % 0 mm 0.0 W/m2 OVC
19:18 -7.4 °C -14.2 °C 34347.6 hPa Calm     45 % 0 mm 0.0 W/m2 OVC
19:23 -7.6 °C -13.9 °C 34347.6 hPa Calm     47 % 0 mm 0.0 W/m2 CLR
19:28 -7.8 °C -13.8 °C 34347.6 hPa Calm     49 % 0 mm 0.0 W/m2 CLR
19:34 -8 °C -14 °C 34361.1 hPa Calm     49 % 0 mm 0.0 W/m2 CLR
19:39 -8.2 °C -13.7 °C 34361.1 hPa Calm     52 % 0 mm 0.0 W/m2 CLR
19:44 -8.4 °C -13.9 °C 34361.1 hPa Calm     52 % 0 mm 0.0 W/m2 CLR
19:49 -8.7 °C -13.8 °C 34361.1 hPa Calm     54 % 0 mm 0.0 W/m2 CLR
19:54 -8.8 °C -13.6 °C 34361.1 hPa Calm     57 % 0 mm 0.0 W/m2 CLR
19:59 -9.1 °C -13.6 °C 34371.3 hPa Calm     59 % 0 mm 0.0 W/m2 CLR
20:04 -9.4 °C -13.7 °C 34371.3 hPa Calm     60 % 0 mm 0.0 W/m2 CLR
20:09 -9.6 °C -13.7 °C 34371.3 hPa Calm     61 % 0 mm 0.0 W/m2 CLR
20:14 -9.8 °C -13.6 °C 34371.3 hPa Calm     63 % 0 mm 0.0 W/m2 CLR
20:19 -9.9 °C -13.7 °C 34371.3 hPa Calm     64 % 0 mm 0.0 W/m2 CLR
20:24 -10.2 °C -13.7 °C 34371.3 hPa Calm     65 % 0 mm 0.0 W/m2 CLR
20:29 -10.3 °C -13.8 °C 34371.3 hPa Calm     66 % 0 mm 0.0 W/m2 CLR
20:34 -10.4 °C -13.8 °C 34371.3 hPa Calm     67 % 0 mm 0.0 W/m2 CLR
20:39 -10.5 °C -13.8 °C 34384.8 hPa Calm     67 % 0 mm 0.0 W/m2 CLR
20:44 -10.6 °C -13.8 °C 34384.8 hPa Calm     68 % 0 mm 0.0 W/m2 CLR
20:49 -10.7 °C -13.8 °C 34384.8 hPa Calm     68 % 0 mm 0.0 W/m2 CLR
20:54 -10.7 °C -13.8 °C 34384.8 hPa Calm     69 % 0 mm 0.0 W/m2 CLR
20:59 -10.8 °C -13.9 °C 34384.8 hPa Calm     69 % 0 mm 0.0 W/m2 CLR
21:04 -10.9 °C -13.9 °C 34384.8 hPa Calm     70 % 0 mm 0.0 W/m2 CLR
21:09 -11.1 °C -13.9 °C 34384.8 hPa Calm     71 % 0 mm 0.0 W/m2 CLR
21:14 -11.2 °C -13.9 °C 34384.8 hPa Calm     72 % 0 mm 0.0 W/m2 CLR
21:19 -11.3 °C -14 °C 34395 hPa Calm     72 % 0 mm 0.0 W/m2 CLR
21:24 -11.3 °C -13.9 °C 34395 hPa Calm     73 % 0 mm 0.0 W/m2 CLR
21:29 -11.4 °C -14 °C 34395 hPa Calm     73 % 0 mm 0.0 W/m2 CLR
21:34 -11.5 °C -13.9 °C 34395 hPa Calm     74 % 0 mm 0.0 W/m2 CLR
21:39 -11.6 °C -14.1 °C 34395 hPa Calm     74 % 0 mm 0.0 W/m2 CLR
21:44 -11.7 °C -14.1 °C 34395 hPa Calm     75 % 0 mm 0.0 W/m2 CLR
21:49 -11.7 °C -14.1 °C 34395 hPa Calm     75 % 0 mm 0.0 W/m2 CLR
21:54 -11.8 °C -14.1 °C 34395 hPa Calm     76 % 0 mm 0.0 W/m2 CLR
21:59 -11.9 °C -14.2 °C 34395 hPa Calm     76 % 0 mm 0.0 W/m2 CLR
22:04 -12 °C -14.2 °C 34395 hPa Calm     76 % 0 mm 0.0 W/m2 CLR
22:09 -12.1 °C -14.2 °C 34395 hPa Calm     77 % 0 mm 0.0 W/m2 CLR
22:14 -12.1 °C -14.1 °C 34405.1 hPa Calm     78 % 0 mm 0.0 W/m2 CLR
22:19 -12.2 °C -14.2 °C 34405.1 hPa Calm     78 % 0 mm 0.0 W/m2 CLR
22:24 -12.2 °C -14.2 °C 34405.1 hPa Calm     78 % 0 mm 0.0 W/m2 CLR
22:30 -12.2 °C -14.2 °C 34405.1 hPa Calm     78 % 0 mm 0.0 W/m2 CLR
22:35 -12.2 °C -14.3 °C 34405.1 hPa Calm     78 % 0 mm 0.0 W/m2 CLR
22:39 -12.3 °C -14.3 °C 34405.1 hPa Calm     78 % 0 mm 0.0 W/m2 CLR
22:45 -12.3 °C -14.3 °C 34405.1 hPa Calm     78 % 0 mm 0.0 W/m2 CLR
22:50 -12.4 °C -14.4 °C 34405.1 hPa Calm     78 % 0 mm 0.0 W/m2 CLR
22:55 -12.4 °C -14.3 °C 34405.1 hPa Calm     79 % 0 mm 0.0 W/m2 CLR
23:00 -12.5 °C -14.4 °C 34405.1 hPa Calm     79 % 0 mm 0.0 W/m2 CLR
23:05 -12.6 °C -14.4 °C 34405.1 hPa Calm     80 % 0 mm 0.0 W/m2 CLR
23:10 -12.7 °C -14.5 °C 34405.1 hPa Calm     80 % 0 mm 0.0 W/m2 CLR
23:15 -12.7 °C -14.5 °C 34405.1 hPa Calm     81 % 0 mm 0.0 W/m2 CLR
23:20 -12.8 °C -14.5 °C 34405.1 hPa Calm     81 % 0 mm 0.0 W/m2 CLR
23:25 -12.8 °C -14.6 °C 34405.1 hPa Calm     81 % 0 mm 0.0 W/m2 CLR
23:30 -12.9 °C -14.6 °C 34405.1 hPa Calm     81 % 0 mm 0.0 W/m2 CLR
23:35 -12.8 °C -14.6 °C 34405.1 hPa Calm     81 % 0 mm 0.0 W/m2 CLR
23:40 -12.8 °C -14.6 °C 34405.1 hPa Calm     81 % 0 mm 0.0 W/m2 CLR
23:45 -12.8 °C -14.6 °C 34405.1 hPa Calm     81 % 0 mm 0.0 W/m2 CLR
23:50 -12.8 °C -14.6 °C 34405.1 hPa Calm     81 % 0 mm 0.0 W/m2 CLR
23:55 -12.8 °C -14.6 °C 34405.1 hPa Calm     81 % 0 mm 0.0 W/m2 CLR
Lo Temps de Massalio
Compliments of Weather Underground - 1.25 mb